Time;durP1;ratioP1;P1;durP2;ratioP2;P2;SDS_P1;SDS_P2;PMS_P1;PMS_P2;Temp;Humidity;BMP_temperature;BMP_pressure;BME280_temperature;BME280_humidity;BME280_pressure;Samples;Min_cycle;Max_cycle;Signal;HPM_P1;HPM_P2
2024/03/29 01:43:31;;;;;;;0.70;0.40;;;6.30;99.90;;;;;;5027019;28;20447;-79
2024/03/29 01:45:58;;;;;;;0.40;0.37;;;6.40;99.90;;;;;;5028491;28;20197;-81
2024/03/29 01:48:26;;;;;;;0.53;0.53;;;6.40;99.90;;;;;;5028145;28;20467;-80
2024/03/29 01:50:55;;;;;;;0.40;0.40;;;6.40;99.90;;;;;;5042009;28;20920;-80
2024/03/29 01:53:22;;;;;;;0.70;0.30;;;6.40;99.90;;;;;;5046498;28;20446;-80
2024/03/29 01:55:51;;;;;;;0.40;0.30;;;6.40;99.90;;;;;;5048012;28;20453;-80
2024/03/29 01:58:20;;;;;;;0.40;0.40;;;6.40;99.90;;;;;;5047102;28;20529;-79
2024/03/29 02:00:53;;;;;;;0.60;0.40;;;6.40;99.90;;;;;;5047381;28;20476;-79
2024/03/29 02:03:20;;;;;;;1.03;0.60;;;6.50;99.90;;;;;;5047346;28;20427;-80
2024/03/29 02:05:48;;;;;;;0.40;0.30;;;6.50;99.90;;;;;;5048549;28;20506;-80
2024/03/29 02:08:16;;;;;;;0.40;0.37;;;6.50;99.90;;;;;;5050562;28;20455;-80
2024/03/29 02:10:43;;;;;;;0.30;0.30;;;6.50;99.90;;;;;;5052062;28;20463;-80
2024/03/29 02:13:11;;;;;;;0.50;0.50;;;6.50;99.90;;;;;;5053286;28;20437;-79
2024/03/29 02:15:39;;;;;;;0.50;0.40;;;6.60;99.90;;;;;;5053200;28;20522;-80
2024/03/29 02:18:07;;;;;;;0.40;0.40;;;6.60;99.90;;;;;;5052711;28;20476;-80
2024/03/29 02:20:34;;;;;;;0.30;0.30;;;6.60;99.90;;;;;;5049689;28;20925;-80
2024/03/29 02:23:06;;;;;;;0.40;0.30;;;6.70;99.90;;;;;;5049560;28;20461;-80
2024/03/29 02:25:35;;;;;;;0.30;0.30;;;6.70;99.90;;;;;;5049137;28;20787;-81
2024/03/29 02:28:02;;;;;;;1.30;0.40;;;6.70;99.90;;;;;;5047485;28;20447;-80
2024/03/29 02:30:30;;;;;;;0.70;0.37;;;6.70;99.90;;;;;;5047618;28;20863;-81
2024/03/29 02:32:57;;;;;;;0.60;0.30;;;6.80;99.90;;;;;;5044108;28;20461;-81
2024/03/29 02:35:23;;;;;;;0.37;0.30;;;6.70;99.90;;;;;;5042944;28;20450;-80
2024/03/29 02:37:51;;;;;;;0.70;0.40;;;6.80;99.90;;;;;;5044130;28;20534;-81
2024/03/29 02:40:18;;;;;;;0.40;0.40;;;6.80;99.90;;;;;;5045776;28;20557;-81
2024/03/29 02:42:46;;;;;;;0.30;0.30;;;6.80;99.90;;;;;;5046329;28;20536;-80
2024/03/29 02:45:13;;;;;;;0.30;0.30;;;6.80;99.90;;;;;;5040368;28;20949;-81
2024/03/29 02:47:39;;;;;;;0.40;0.30;;;6.80;99.90;;;;;;5041251;28;20451;-81
2024/03/29 02:50:07;;;;;;;0.60;0.40;;;6.90;99.90;;;;;;5041100;28;21022;-80
2024/03/29 02:52:33;;;;;;;0.40;0.40;;;6.90;99.90;;;;;;5046101;28;20195;-82
2024/03/29 02:55:00;;;;;;;0.70;0.30;;;6.90;99.90;;;;;;5061481;28;20435;-80
2024/03/29 02:57:25;;;;;;;0.50;0.43;;;7.00;99.90;;;;;;5061220;28;20194;-80
2024/03/29 03:00:16;;;;;;;0.50;0.40;;;7.00;99.90;;;;;;5060575;28;20467;-82
2024/03/29 03:02:41;;;;;;;2.33;0.40;;;7.00;99.90;;;;;;5047031;28;20226;-81
2024/03/29 03:05:09;;;;;;;0.30;0.30;;;7.00;99.90;;;;;;5041164;28;20435;-81
2024/03/29 03:13:05;;;;;;;0.30;0.30;;;6.80;99.90;;;;;;5042850;28;20410;-81
2024/03/29 03:15:33;;;;;;;0.30;0.30;;;6.90;99.90;;;;;;5040556;28;20458;-81
2024/03/29 03:17:59;;;;;;;0.40;0.30;;;7.00;99.90;;;;;;5039426;28;20454;-81
2024/03/29 03:20:30;;;;;;;0.90;0.50;;;7.00;99.90;;;;;;5038255;28;20453;-81
2024/03/29 03:22:57;;;;;;;0.50;0.50;;;7.00;99.90;;;;;;5039689;28;20994;-81
2024/03/29 03:25:23;;;;;;;0.30;0.30;;;7.00;99.90;;;;;;5038843;28;20454;-82
2024/03/29 03:27:49;;;;;;;0.40;0.37;;;7.10;99.90;;;;;;5040258;28;20492;-81
2024/03/29 03:30:15;;;;;;;0.40;0.30;;;7.10;99.90;;;;;;5039981;28;20439;-81
2024/03/29 03:32:43;;;;;;;0.40;0.33;;;7.10;99.90;;;;;;5039523;28;20806;-81
2024/03/29 03:35:09;;;;;;;0.40;0.33;;;7.10;99.90;;;;;;5041599;28;20215;-82
2024/03/29 03:37:36;;;;;;;0.40;0.30;;;7.10;99.90;;;;;;5039523;28;20434;-81
2024/03/29 03:40:04;;;;;;;0.37;0.30;;;7.10;99.90;;;;;;5042414;28;20231;-81
2024/03/29 03:42:30;;;;;;;0.70;0.40;;;7.10;99.90;;;;;;5050046;28;20481;-81
2024/03/29 03:44:56;;;;;;;0.30;0.30;;;7.00;99.90;;;;;;5041504;28;20439;-82
2024/03/29 03:47:23;;;;;;;0.50;0.50;;;7.00;99.90;;;;;;5041664;28;20958;-82
2024/03/29 03:49:50;;;;;;;0.63;0.50;;;7.00;99.90;;;;;;5043159;28;20236;-81
2024/03/29 03:52:17;;;;;;;0.40;0.30;;;7.00;99.90;;;;;;5041749;28;20454;-81
2024/03/29 03:54:43;;;;;;;0.50;0.50;;;7.10;99.90;;;;;;5042015;28;20439;-81
2024/03/29 03:57:09;;;;;;;0.77;0.40;;;7.10;99.90;;;;;;5046756;28;20801;-81
2024/03/29 03:59:35;;;;;;;0.50;0.50;;;7.10;99.90;;;;;;5053065;28;20234;-80
2024/03/29 04:02:02;;;;;;;0.50;0.50;;;7.10;99.90;;;;;;5053823;28;20478;-80
2024/03/29 04:04:27;;;;;;;0.50;0.50;;;7.00;99.90;;;;;;5050956;28;20208;-80
2024/03/29 04:06:55;;;;;;;0.50;0.50;;;6.90;99.90;;;;;;5048235;28;20871;-81
2024/03/29 04:09:21;;;;;;;1.83;0.60;;;6.90;99.90;;;;;;5050122;28;20232;-81
2024/03/29 04:11:48;;;;;;;0.40;0.40;;;6.80;99.90;;;;;;5050060;28;20860;-80
2024/03/29 04:14:15;;;;;;;0.40;0.40;;;6.80;99.90;;;;;;5049111;28;20204;-80
2024/03/29 04:16:40;;;;;;;1.03;0.40;;;6.90;99.90;;;;;;5050335;28;20450;-80
2024/03/29 04:19:07;;;;;;;0.83;0.40;;;6.70;99.90;;;;;;5050776;28;20848;-80
2024/03/29 04:21:33;;;;;;;0.40;0.30;;;6.80;99.90;;;;;;5050939;28;20227;-81
2024/03/29 04:24:01;;;;;;;0.40;0.40;;;6.80;99.90;;;;;;5049584;28;20446;-80
2024/03/29 04:26:27;;;;;;;0.50;0.40;;;6.80;99.90;;;;;;5045895;28;20673;-81
2024/03/29 04:28:54;;;;;;;0.87;0.40;;;6.90;99.90;;;;;;5045422;28;20477;-80
2024/03/29 04:31:19;;;;;;;0.50;0.30;;;7.00;99.90;;;;;;5044004;28;20206;-81
2024/03/29 04:33:46;;;;;;;0.40;0.30;;;7.10;99.90;;;;;;5044683;28;20533;-82
2024/03/29 04:36:12;;;;;;;0.77;0.40;;;7.10;99.90;;;;;;5042853;28;20206;-82
2024/03/29 04:38:39;;;;;;;2.33;0.47;;;7.20;99.90;;;;;;5039234;28;20470;-81
2024/03/29 04:41:07;;;;;;;0.80;0.50;;;7.20;99.90;;;;;;5039414;28;20200;-81
2024/03/29 04:43:33;;;;;;;0.40;0.30;;;7.10;99.90;;;;;;5042424;28;20439;-81
2024/03/29 04:46:05;;;;;;;0.50;0.50;;;7.10;99.90;;;;;;5044466;28;20451;-81
2024/03/29 04:48:32;;;;;;;0.47;0.47;;;7.10;99.90;;;;;;5039397;28;20991;-81
2024/03/29 04:50:58;;;;;;;1.00;0.70;;;6.90;99.90;;;;;;5039369;28;20478;-81
2024/03/29 04:53:25;;;;;;;0.80;0.80;;;6.90;99.90;;;;;;5040111;28;20447;-81
2024/03/29 04:55:54;;;;;;;0.40;0.40;;;6.90;99.90;;;;;;5041111;28;20439;-81
2024/03/29 04:58:22;;;;;;;0.87;0.40;;;6.90;99.90;;;;;;5040371;28;20455;-81
2024/03/29 05:00:50;;;;;;;0.63;0.40;;;6.90;99.90;;;;;;5040143;28;20936;-81
2024/03/29 05:03:18;;;;;;;0.80;0.50;;;6.90;99.90;;;;;;5040060;28;21003;-81
2024/03/29 05:05:45;;;;;;;0.40;0.33;;;6.90;99.90;;;;;;5043474;28;20482;-81
2024/03/29 05:08:11;;;;;;;0.80;0.50;;;7.00;99.90;;;;;;5041590;28;20987;-81
2024/03/29 05:10:39;;;;;;;0.70;0.50;;;7.00;99.90;;;;;;5040685;28;20451;-81
2024/03/29 05:13:06;;;;;;;0.50;0.40;;;7.00;99.90;;;;;;5042060;28;20450;-82
2024/03/29 05:15:35;;;;;;;0.63;0.50;;;7.00;99.90;;;;;;5047298;28;20908;-81
2024/03/29 05:18:01;;;;;;;0.47;0.40;;;7.00;99.90;;;;;;5040748;28;20500;-82
2024/03/29 05:20:28;;;;;;;0.40;0.30;;;7.00;99.90;;;;;;5046106;28;20835;-82
2024/03/29 05:22:55;;;;;;;0.40;0.40;;;7.00;99.90;;;;;;5045847;28;20478;-82
2024/03/29 05:25:23;;;;;;;1.80;0.40;;;7.10;99.90;;;;;;5041404;28;20451;-81
2024/03/29 05:27:50;;;;;;;0.40;0.40;;;7.10;99.90;;;;;;5040026;28;20465;-81
2024/03/29 05:30:17;;;;;;;0.40;0.40;;;7.10;99.90;;;;;;5039096;28;20447;-81
2024/03/29 05:32:46;;;;;;;0.40;0.40;;;7.10;99.90;;;;;;5038978;28;20443;-81
2024/03/29 05:35:13;;;;;;;0.40;0.40;;;7.10;99.90;;;;;;5038811;28;20450;-81
2024/03/29 05:37:40;;;;;;;0.60;0.40;;;7.10;99.90;;;;;;5048150;28;20439;-81
2024/03/29 05:40:08;;;;;;;0.50;0.40;;;7.10;99.90;;;;;;5058531;28;20475;-81
2024/03/29 05:42:37;;;;;;;0.80;0.67;;;7.20;99.90;;;;;;5060201;28;20561;-81
2024/03/29 05:45:06;;;;;;;1.67;0.50;;;7.20;99.90;;;;;;5062332;28;20434;-82
2024/03/29 05:47:33;;;;;;;0.90;0.40;;;7.30;99.90;;;;;;5046512;28;20451;-82
2024/03/29 05:50:01;;;;;;;0.50;0.30;;;7.30;99.90;;;;;;5042052;28;20486;-82
2024/03/29 05:52:27;;;;;;;3.17;0.60;;;7.30;99.90;;;;;;5042538;28;20469;-82
2024/03/29 05:54:54;;;;;;;0.70;0.50;;;7.40;99.90;;;;;;5041494;28;20451;-82
2024/03/29 05:57:24;;;;;;;0.40;0.40;;;7.50;99.90;;;;;;5041561;28;20442;-82
2024/03/29 05:59:52;;;;;;;0.30;0.30;;;7.60;99.90;;;;;;5042116;28;20466;-82
2024/03/29 06:02:19;;;;;;;1.47;0.30;;;7.60;99.90;;;;;;5040969;28;20533;-82
2024/03/29 06:04:47;;;;;;;1.13;0.50;;;7.70;99.90;;;;;;5041301;28;20473;-82
2024/03/29 06:07:15;;;;;;;0.40;0.40;;;7.80;99.90;;;;;;5042011;28;20455;-82
2024/03/29 06:09:42;;;;;;;0.50;0.47;;;7.90;99.90;;;;;;5041430;28;20545;-82
2024/03/29 06:12:11;;;;;;;0.40;0.40;;;8.00;99.90;;;;;;5042020;28;20453;-82
2024/03/29 06:17:24;;;;;;;0.40;0.40;;;8.20;99.90;;;;;;5040379;28;20405;-82
2024/03/29 06:19:51;;;;;;;0.50;0.50;;;8.30;99.90;;;;;;5039950;28;20991;-84
2024/03/29 06:22:19;;;;;;;0.40;0.40;;;8.40;99.90;;;;;;5040767;28;20497;-83
2024/03/29 06:24:46;;;;;;;0.50;0.50;;;8.30;99.90;;;;;;5040569;28;20451;-83
2024/03/29 06:27:16;;;;;;;1.50;0.40;;;8.30;99.90;;;;;;5040865;28;20451;-83
2024/03/29 06:29:43;;;;;;;0.60;0.33;;;8.30;99.90;;;;;;5039858;28;20482;-84
2024/03/29 06:32:09;;;;;;;0.50;0.50;;;8.40;99.90;;;;;;5039910;28;20446;-84
2024/03/29 06:34:36;;;;;;;0.40;0.40;;;8.50;99.90;;;;;;5043919;28;20443;-84
2024/03/29 06:37:03;;;;;;;0.30;0.30;;;8.60;99.90;;;;;;5043938;28;20457;-83
2024/03/29 06:39:31;;;;;;;0.90;0.70;;;8.60;99.90;;;;;;5041672;28;20986;-83
2024/03/29 06:41:58;;;;;;;1.70;0.70;;;8.70;99.90;;;;;;5040569;28;20489;-83
2024/03/29 06:44:25;;;;;;;0.40;0.40;;;8.90;99.90;;;;;;5040125;28;20434;-82
2024/03/29 06:46:52;;;;;;;0.40;0.40;;;9.00;99.90;;;;;;5039954;28;20458;-82
2024/03/29 06:49:18;;;;;;;0.33;0.33;;;9.00;99.90;;;;;;5039426;28;20477;-83
2024/03/29 06:51:45;;;;;;;0.53;0.50;;;9.00;99.90;;;;;;5039912;28;20423;-82
2024/03/29 06:54:12;;;;;;;0.60;0.40;;;9.00;99.90;;;;;;5038888;28;20439;-82
2024/03/29 06:56:40;;;;;;;0.73;0.50;;;8.90;99.90;;;;;;5038388;28;20447;-83
2024/03/29 06:59:06;;;;;;;0.90;0.50;;;8.90;99.90;;;;;;5039381;28;20467;-83
2024/03/29 07:01:33;;;;;;;0.50;0.40;;;8.90;99.90;;;;;;5038883;28;20921;-83
2024/03/29 07:04:00;;;;;;;0.40;0.40;;;8.90;99.90;;;;;;5038122;28;20491;-83
2024/03/29 07:06:26;;;;;;;0.57;0.30;;;9.00;99.90;;;;;;5038631;28;20431;-83
2024/03/29 07:08:53;;;;;;;0.80;0.40;;;9.00;99.90;;;;;;5037963;28;20462;-82
2024/03/29 07:11:20;;;;;;;1.27;0.50;;;9.10;99.90;;;;;;5037751;28;20470;-83
2024/03/29 07:13:48;;;;;;;0.60;0.30;;;9.10;99.90;;;;;;5037194;28;20970;-83
2024/03/29 07:16:15;;;;;;;0.43;0.40;;;9.00;99.90;;;;;;5037448;28;20435;-83
2024/03/29 07:18:41;;;;;;;0.43;0.43;;;8.90;99.90;;;;;;5038670;28;20467;-83
2024/03/29 07:21:08;;;;;;;1.50;0.50;;;8.90;99.90;;;;;;5038131;28;20439;-82
2024/03/29 07:23:35;;;;;;;0.57;0.50;;;8.80;99.90;;;;;;5039158;28;20490;-83
2024/03/29 07:26:03;;;;;;;2.60;0.50;;;8.70;99.90;;;;;;5038610;28;20470;-82
2024/03/29 07:28:30;;;;;;;1.57;0.50;;;8.50;99.90;;;;;;5039428;28;20459;-82
2024/03/29 07:31:06;;;;;;;0.50;0.47;;;8.40;99.90;;;;;;5039620;28;20442;-82
2024/03/29 07:33:33;;;;;;;2.10;0.50;;;8.20;99.90;;;;;;5040016;28;20462;-83
2024/03/29 07:35:59;;;;;;;5.83;0.53;;;7.90;99.90;;;;;;5039362;28;20460;-83
2024/03/29 07:38:26;;;;;;;0.73;0.57;;;7.70;99.90;;;;;;5038576;28;20461;-82
2024/03/29 07:40:54;;;;;;;1.13;0.40;;;7.60;99.90;;;;;;5037890;28;20454;-83
2024/03/29 07:43:22;;;;;;;12.90;0.60;;;7.40;99.90;;;;;;5037343;28;20502;-82
2024/03/29 07:45:49;;;;;;;0.30;0.30;;;7.30;99.90;;;;;;5038408;28;20530;-82
2024/03/29 07:48:18;;;;;;;0.60;0.40;;;7.00;99.90;;;;;;5039223;28;20473;-81
2024/03/29 07:50:46;;;;;;;0.70;0.70;;;6.80;99.90;;;;;;5038689;28;20536;-81
2024/03/29 07:53:13;;;;;;;1.03;0.37;;;6.70;99.90;;;;;;5038452;28;20513;-81
2024/03/29 07:55:41;;;;;;;0.37;0.37;;;6.60;99.90;;;;;;5037361;28;20447;-80
2024/03/29 08:47:44;;;;;;;0.93;0.37;;;7.80;99.90;;;;;;4977464;28;20481;-82
2024/03/29 08:50:11;;;;;;;1.37;0.47;;;7.80;99.90;;;;;;4979459;28;20469;-81
2024/03/29 08:52:38;;;;;;;0.53;0.37;;;8.00;99.90;;;;;;4979523;28;20457;-81
2024/03/29 08:55:06;;;;;;;0.40;0.40;;;8.00;99.90;;;;;;4979581;28;20454;-82
2024/03/29 08:57:32;;;;;;;0.50;0.40;;;8.10;99.90;;;;;;4979386;28;20950;-82
2024/03/29 08:59:59;;;;;;;0.70;0.50;;;8.20;99.90;;;;;;4979761;28;20991;-82
2024/03/29 09:02:26;;;;;;;0.53;0.50;;;8.30;99.90;;;;;;4979970;28;20487;-84
2024/03/29 09:04:54;;;;;;;0.30;0.30;;;8.40;99.90;;;;;;4979150;28;20449;-84
2024/03/29 09:07:22;;;;;;;0.30;0.30;;;8.40;99.90;;;;;;4978857;28;20449;-83
2024/03/29 09:09:50;;;;;;;0.40;0.40;;;8.60;99.90;;;;;;4978160;28;21057;-84
2024/03/29 09:12:18;;;;;;;0.60;0.40;;;8.70;99.90;;;;;;4978727;28;20464;-83
2024/03/29 09:14:45;;;;;;;0.40;0.40;;;8.80;99.90;;;;;;4978915;28;20430;-83
2024/03/29 09:17:11;;;;;;;0.40;0.30;;;8.90;99.90;;;;;;4978068;28;20436;-84
2024/03/29 09:19:38;;;;;;;0.70;0.40;;;9.00;99.90;;;;;;4977541;28;20501;-84
2024/03/29 09:22:06;;;;;;;2.53;0.70;;;9.00;99.90;;;;;;4978383;28;20434;-86
2024/03/29 09:24:34;;;;;;;0.57;0.50;;;9.10;99.90;;;;;;4981309;28;20476;-87
2024/03/29 09:27:01;;;;;;;0.40;0.40;;;9.10;99.90;;;;;;4980341;28;20457;-86
2024/03/29 09:29:28;;;;;;;0.50;0.40;;;9.10;99.90;;;;;;4981111;28;20560;-86
2024/03/29 09:31:54;;;;;;;0.40;0.40;;;9.20;99.90;;;;;;4981648;28;20445;-85
2024/03/29 09:34:23;;;;;;;1.87;0.50;;;9.20;99.90;;;;;;4981920;28;20449;-86
2024/03/29 09:36:50;;;;;;;0.30;0.30;;;9.20;99.90;;;;;;4981469;28;20528;-85
2024/03/29 09:39:18;;;;;;;0.50;0.50;;;9.30;99.90;;;;;;4982186;28;20469;-86
2024/03/29 09:41:46;;;;;;;0.50;0.50;;;9.50;99.90;;;;;;4999246;28;20437;-85
2024/03/29 09:44:13;;;;;;;0.80;0.50;;;9.60;99.90;;;;;;4999495;28;20469;-85
2024/03/29 09:46:42;;;;;;;0.40;0.40;;;9.90;99.90;;;;;;4999326;28;20491;-86
2024/03/29 09:49:10;;;;;;;1.53;0.50;;;10.10;99.90;;;;;;4999377;28;20456;-87
2024/03/29 09:51:37;;;;;;;2.63;0.60;;;10.20;99.90;;;;;;4998667;28;20517;-85
2024/03/29 09:54:07;;;;;;;0.80;0.50;;;10.40;99.90;;;;;;4998888;28;20438;-84
2024/03/29 09:56:36;;;;;;;0.40;0.30;;;10.60;99.90;;;;;;4988879;28;20437;-85
2024/03/29 09:59:03;;;;;;;0.40;0.40;;;10.70;99.90;;;;;;4985585;28;20556;-86
2024/03/29 10:01:32;;;;;;;0.50;0.30;;;10.80;99.90;;;;;;4985541;28;20438;-85
2024/03/29 10:04:01;;;;;;;36.83;5.10;;;11.00;99.90;;;;;;4985001;28;20499;-86
2024/03/29 10:06:30;;;;;;;0.50;0.50;;;11.00;99.90;;;;;;4985302;28;20445;-85
2024/03/29 10:08:58;;;;;;;2.43;0.40;;;11.00;99.90;;;;;;4986309;28;20469;-85
2024/03/29 10:11:25;;;;;;;0.83;0.40;;;11.20;99.90;;;;;;4984165;28;20484;-84
2024/03/29 10:13:53;;;;;;;0.40;0.30;;;11.40;99.90;;;;;;4982902;28;20445;-84
2024/03/29 10:16:23;;;;;;;0.40;0.30;;;11.90;99.90;;;;;;4980392;28;20434;-83
2024/03/29 10:18:49;;;;;;;0.43;0.40;;;12.70;99.90;;;;;;4980499;28;20479;-81
2024/03/29 10:21:16;;;;;;;4.60;0.67;;;13.60;99.90;;;;;;4979312;28;20453;-82
2024/03/29 10:23:43;;;;;;;1.03;0.60;;;14.10;99.90;;;;;;4981740;28;20461;-84
2024/03/29 10:26:12;;;;;;;0.50;0.50;;;14.20;99.90;;;;;;4980315;28;20521;-84
2024/03/29 10:28:40;;;;;;;0.63;0.63;;;14.10;99.90;;;;;;4981287;28;20469;-84
2024/03/29 10:31:08;;;;;;;1.53;0.77;;;14.00;99.90;;;;;;4983467;28;20457;-84
2024/03/29 10:33:35;;;;;;;1.40;1.30;;;13.80;99.90;;;;;;4983691;28;20471;-84
2024/03/29 10:36:04;;;;;;;2.97;0.60;;;14.00;99.90;;;;;;4983423;28;20459;-85
2024/03/29 10:38:31;;;;;;;7.80;0.80;;;14.20;99.90;;;;;;4982964;28;20465;-84
2024/03/29 10:40:59;;;;;;;1.10;0.80;;;14.50;99.90;;;;;;4983367;28;20456;-84
2024/03/29 10:43:26;;;;;;;5.90;0.70;;;14.90;99.90;;;;;;4985013;28;20486;-84
2024/03/29 10:45:58;;;;;;;0.60;0.60;;;15.10;99.90;;;;;;4989423;28;20517;-84
2024/03/29 10:48:28;;;;;;;0.87;0.50;;;15.10;99.90;;;;;;5000254;28;20477;-83
2024/03/29 10:50:56;;;;;;;1.07;0.40;;;15.20;99.90;;;;;;5001535;28;20451;-84
2024/03/29 10:53:25;;;;;;;0.50;0.50;;;15.30;99.90;;;;;;4996367;28;20437;-83
2024/03/29 10:55:54;;;;;;;0.40;0.33;;;15.40;99.90;;;;;;5000626;28;20434;-83
2024/03/29 10:58:24;;;;;;;1.37;0.50;;;15.60;99.90;;;;;;5000269;28;20464;-84
2024/03/29 11:00:55;;;;;;;0.80;0.50;;;16.00;99.90;;;;;;4991039;28;20453;-84
2024/03/29 11:03:33;;;;;;;0.40;0.40;;;16.10;99.90;;;;;;4985517;28;20484;-84
2024/03/29 11:06:03;;;;;;;0.47;0.47;;;15.90;99.90;;;;;;4983295;28;20452;-85
2024/03/29 11:08:34;;;;;;;0.60;0.50;;;15.60;99.90;;;;;;4983125;28;20474;-84
2024/03/29 11:11:04;;;;;;;0.40;0.40;;;15.40;99.90;;;;;;4982802;28;20458;-84
2024/03/29 11:13:34;;;;;;;0.43;0.43;;;15.30;99.90;;;;;;4982053;28;20827;-84
2024/03/29 11:16:01;;;;;;;0.50;0.50;;;15.40;99.90;;;;;;4982284;28;20425;-84
2024/03/29 11:18:30;;;;;;;1.30;0.50;;;15.50;99.90;;;;;;4981970;28;20653;-84
2024/03/29 11:20:58;;;;;;;0.67;0.50;;;15.60;99.90;;;;;;4981550;28;20483;-84
2024/03/29 11:23:28;;;;;;;0.50;0.50;;;15.70;99.90;;;;;;4985695;28;20493;-85
2024/03/29 11:25:57;;;;;;;1.27;0.50;;;15.90;99.90;;;;;;4994271;28;20509;-84
2024/03/29 11:28:26;;;;;;;0.50;0.43;;;16.00;99.90;;;;;;4992634;28;20457;-84
2024/03/29 11:30:54;;;;;;;0.50;0.40;;;16.10;99.90;;;;;;4995479;28;20461;-84
2024/03/29 11:33:30;;;;;;;0.50;0.50;;;16.10;99.90;;;;;;4995132;28;20796;-84
2024/03/29 11:35:57;;;;;;;0.50;0.40;;;16.10;99.90;;;;;;4990835;28;20433;-84
2024/03/29 11:38:31;;;;;;;0.73;0.73;;;16.10;99.90;;;;;;4985485;28;20457;-84
2024/03/29 11:41:06;;;;;;;0.47;0.40;;;16.00;99.90;;;;;;4984220;28;20440;-85
2024/03/29 11:43:34;;;;;;;0.60;0.50;;;15.90;99.90;;;;;;4984270;28;20492;-85
2024/03/29 11:46:01;;;;;;;0.40;0.40;;;15.80;99.90;;;;;;4983631;28;20478;-84
2024/03/29 11:48:32;;;;;;;0.67;0.50;;;15.70;99.90;;;;;;4985650;28;20594;-84
2024/03/29 11:50:59;;;;;;;0.87;0.50;;;15.60;99.90;;;;;;4985513;28;20414;-85
2024/03/29 11:53:27;;;;;;;0.90;0.60;;;15.50;99.90;;;;;;4982623;28;20445;-85
2024/03/29 11:55:54;;;;;;;0.70;0.57;;;15.50;99.90;;;;;;4982995;28;20867;-85
2024/03/29 11:58:23;;;;;;;0.40;0.40;;;15.50;99.90;;;;;;4982377;28;20477;-84
2024/03/29 12:00:50;;;;;;;0.43;0.40;;;15.50;99.90;;;;;;4983673;28;20473;-84
2024/03/29 12:03:17;;;;;;;0.40;0.40;;;15.50;99.90;;;;;;4981679;28;20449;-84
2024/03/29 12:05:46;;;;;;;0.60;0.50;;;15.60;99.90;;;;;;4980745;28;20437;-84
2024/03/29 12:08:13;;;;;;;0.50;0.47;;;15.60;99.90;;;;;;4982463;28;20484;-86
2024/03/29 12:10:41;;;;;;;0.40;0.40;;;15.70;99.90;;;;;;4983495;28;20460;-85
2024/03/29 12:13:08;;;;;;;0.90;0.40;;;15.80;99.90;;;;;;4982214;28;20449;-85
2024/03/29 12:15:35;;;;;;;0.70;0.40;;;15.80;99.90;;;;;;4985359;28;20453;-84
2024/03/29 12:18:05;;;;;;;0.50;0.50;;;15.90;99.90;;;;;;4980971;28;20441;-84
2024/03/29 12:20:32;;;;;;;0.80;0.47;;;15.90;99.90;;;;;;4979656;28;20481;-84
2024/03/29 12:23:02;;;;;;;0.40;0.40;;;16.00;99.90;;;;;;4980155;28;20457;-84
2024/03/29 12:25:28;;;;;;;0.50;0.40;;;16.10;99.90;;;;;;4979238;28;20532;-84
2024/03/29 12:27:55;;;;;;;0.50;0.50;;;16.20;99.90;;;;;;4979810;28;20891;-84
2024/03/29 12:30:23;;;;;;;0.63;0.63;;;16.30;99.90;;;;;;4980061;28;20441;-84
2024/03/29 12:32:49;;;;;;;0.50;0.50;;;16.20;99.90;;;;;;4979742;28;20416;-84
2024/03/29 12:35:17;;;;;;;2.30;0.50;;;16.30;99.90;;;;;;4979237;28;20807;-84
2024/03/29 12:37:51;;;;;;;0.40;0.40;;;16.30;99.90;;;;;;4980205;28;20805;-84
2024/03/29 12:40:22;;;;;;;0.60;0.40;;;16.30;99.90;;;;;;4979064;28;20485;-84
2024/03/29 12:42:49;;;;;;;0.40;0.40;;;16.20;99.90;;;;;;4979106;28;20438;-84
2024/03/29 12:45:17;;;;;;;0.60;0.60;;;16.00;99.90;;;;;;4978637;28;20536;-83
2024/03/29 12:47:45;;;;;;;0.40;0.40;;;16.00;99.90;;;;;;4974800;28;20488;-84
2024/03/29 12:50:15;;;;;;;0.63;0.43;;;16.00;99.90;;;;;;4979446;28;20465;-84
2024/03/29 12:52:43;;;;;;;0.40;0.40;;;15.90;99.90;;;;;;4978987;28;20457;-84
2024/03/29 12:55:10;;;;;;;0.43;0.43;;;15.70;99.90;;;;;;4978205;28;20451;-84
2024/03/29 12:57:40;;;;;;;0.50;0.50;;;15.90;99.90;;;;;;4978407;28;20449;-85
2024/03/29 13:00:09;;;;;;;3.40;0.53;;;16.00;99.90;;;;;;4978214;28;21062;-84
2024/03/29 13:02:36;;;;;;;0.67;0.40;;;16.20;99.90;;;;;;4977603;28;20425;-84
2024/03/29 13:05:05;;;;;;;0.40;0.40;;;16.20;99.90;;;;;;4977713;28;20613;-84
2024/03/29 13:07:32;;;;;;;0.60;0.60;;;16.20;99.90;;;;;;4977903;28;20793;-84
2024/03/29 13:10:02;;;;;;;0.53;0.50;;;16.10;99.90;;;;;;4977306;28;20469;-84
2024/03/29 13:12:29;;;;;;;0.43;0.40;;;15.90;99.90;;;;;;4977560;28;20812;-84
2024/03/29 13:14:57;;;;;;;0.93;0.40;;;15.60;99.90;;;;;;4978169;28;20954;-84
2024/03/29 13:17:24;;;;;;;1.07;0.40;;;15.40;99.90;;;;;;4978364;28;20554;-84
2024/03/29 13:19:51;;;;;;;0.50;0.40;;;15.20;99.90;;;;;;4978431;28;20473;-84
2024/03/29 13:22:18;;;;;;;0.40;0.40;;;15.10;99.90;;;;;;4978071;28;20445;-85
2024/03/29 13:24:45;;;;;;;0.40;0.40;;;15.10;99.90;;;;;;4976844;28;20484;-84
2024/03/29 13:27:13;;;;;;;0.50;0.50;;;15.00;99.90;;;;;;4976849;28;20449;-84
2024/03/29 13:29:40;;;;;;;0.50;0.47;;;15.10;99.90;;;;;;4977132;28;20531;-85
2024/03/29 13:32:08;;;;;;;0.50;0.40;;;15.10;99.90;;;;;;4977140;28;21043;-84
2024/03/29 13:34:35;;;;;;;0.37;0.37;;;15.20;99.90;;;;;;4977440;28;20947;-84
2024/03/29 13:37:01;;;;;;;0.40;0.30;;;15.10;99.90;;;;;;4977515;28;20821;-84
2024/03/29 13:39:28;;;;;;;1.00;0.40;;;15.00;99.90;;;;;;4977058;28;20981;-83
2024/03/29 13:41:55;;;;;;;0.30;0.30;;;15.00;99.90;;;;;;4977678;28;20457;-84
2024/03/29 13:44:22;;;;;;;0.47;0.30;;;14.90;99.90;;;;;;4978295;28;21005;-84
2024/03/29 13:46:48;;;;;;;0.50;0.40;;;14.80;99.90;;;;;;4977228;28;20936;-83
2024/03/29 13:49:20;;;;;;;0.40;0.37;;;14.80;99.90;;;;;;4978201;28;20477;-83
2024/03/29 13:51:47;;;;;;;1.47;0.30;;;14.90;99.90;;;;;;4977704;28;20448;-83
2024/03/29 13:54:13;;;;;;;0.57;0.50;;;14.90;99.90;;;;;;4976731;28;20461;-83
2024/03/29 13:56:40;;;;;;;0.70;0.40;;;14.80;99.90;;;;;;4977301;28;20449;-83
2024/03/29 13:59:07;;;;;;;0.40;0.40;;;14.80;99.90;;;;;;4978115;28;20468;-83
2024/03/29 14:01:34;;;;;;;0.30;0.30;;;14.90;99.90;;;;;;4979233;28;20451;-83
2024/03/29 14:04:00;;;;;;;0.30;0.30;;;14.90;99.90;;;;;;4981020;28;20484;-84
2024/03/29 14:06:28;;;;;;;0.50;0.50;;;15.00;99.90;;;;;;4981040;28;20456;-84
2024/03/29 14:08:55;;;;;;;0.57;0.40;;;15.00;99.90;;;;;;4979794;28;20469;-84
2024/03/29 14:11:22;;;;;;;0.70;0.50;;;15.00;99.90;;;;;;4979230;28;20828;-83
2024/03/29 14:13:50;;;;;;;1.57;0.43;;;15.00;99.90;;;;;;4979155;28;20823;-83
2024/03/29 14:16:17;;;;;;;0.40;0.40;;;15.00;99.90;;;;;;4979377;28;20448;-83
2024/03/29 14:18:44;;;;;;;0.40;0.40;;;15.00;99.90;;;;;;4978964;28;20465;-83
2024/03/29 14:21:11;;;;;;;1.60;0.40;;;15.10;99.90;;;;;;4979615;28;20476;-83
2024/03/29 14:23:40;;;;;;;0.50;0.50;;;15.20;99.90;;;;;;4979790;28;20437;-83
2024/03/29 14:26:06;;;;;;;0.60;0.40;;;15.20;99.90;;;;;;4979335;28;20477;-83
2024/03/29 14:28:33;;;;;;;0.70;0.40;;;15.30;99.90;;;;;;4979669;28;20495;-84
2024/03/29 14:31:00;;;;;;;0.70;0.50;;;15.30;99.90;;;;;;4980238;28;20453;-83
2024/03/29 14:33:27;;;;;;;1.07;0.47;;;15.50;99.90;;;;;;4980547;28;20453;-84
2024/03/29 14:35:53;;;;;;;0.50;0.40;;;15.50;99.90;;;;;;4980951;28;20533;-84
2024/03/29 14:38:21;;;;;;;2.20;0.80;;;15.50;99.90;;;;;;4981346;28;20514;-84
2024/03/29 14:40:49;;;;;;;0.73;0.50;;;15.40;99.90;;;;;;4980812;28;20499;-83
2024/03/29 14:43:16;;;;;;;0.50;0.50;;;15.40;99.90;;;;;;4980415;28;20453;-83
2024/03/29 14:45:43;;;;;;;0.60;0.60;;;15.40;99.90;;;;;;4980140;28;20489;-83
2024/03/29 14:48:10;;;;;;;0.80;0.50;;;15.40;99.90;;;;;;4981850;28;20468;-83
2024/03/29 14:50:36;;;;;;;0.40;0.40;;;15.40;99.90;;;;;;4986366;28;20445;-84
2024/03/29 14:53:04;;;;;;;0.40;0.40;;;15.50;99.90;;;;;;4998396;28;20448;-84
2024/03/29 14:55:30;;;;;;;0.77;0.50;;;15.50;99.90;;;;;;4999970;28;20438;-84
2024/03/29 14:57:59;;;;;;;0.40;0.40;;;15.40;99.90;;;;;;5001979;28;20448;-83
2024/03/29 15:00:25;;;;;;;0.40;0.40;;;15.40;99.90;;;;;;5002445;28;20469;-83
2024/03/29 15:02:53;;;;;;;0.50;0.47;;;15.50;99.90;;;;;;5002268;28;20528;-82
2024/03/29 15:05:20;;;;;;;0.80;0.47;;;15.50;99.90;;;;;;5001730;28;20469;-83
2024/03/29 15:07:47;;;;;;;0.30;0.30;;;15.50;99.90;;;;;;4996444;28;20930;-84
2024/03/29 15:10:14;;;;;;;0.57;0.50;;;15.50;99.90;;;;;;4986861;28;20469;-85
2024/03/29 15:12:41;;;;;;;0.50;0.50;;;15.60;99.90;;;;;;4987876;28;20434;-85
2024/03/29 15:15:10;;;;;;;0.70;0.47;;;15.60;99.90;;;;;;4984699;28;20441;-84
2024/03/29 15:17:36;;;;;;;0.67;0.43;;;15.70;99.90;;;;;;4983147;28;20508;-85
2024/03/29 15:20:05;;;;;;;1.60;0.50;;;15.70;99.90;;;;;;4982454;28;20469;-84
2024/03/29 15:22:31;;;;;;;0.40;0.40;;;15.70;99.90;;;;;;4983921;28;20473;-84
2024/03/29 15:25:00;;;;;;;0.67;0.53;;;15.70;99.90;;;;;;4985369;28;20485;-84
2024/03/29 15:29:07;;;;;;;1.80;0.60;;;15.70;99.90;;;;;;4988086;28;20441;-85
2024/03/29 15:30:22;;;;;;;1.17;0.47;;;15.70;99.90;;;;;;4990525;28;20446;-85
2024/03/29 15:32:49;;;;;;;0.40;0.40;;;15.60;99.90;;;;;;4983486;28;20461;-84
2024/03/29 15:35:16;;;;;;;0.50;0.40;;;15.70;99.90;;;;;;4982174;28;20437;-84